Time;durP1;ratioP1;P1;durP2;ratioP2;P2;SDS_P1;SDS_P2;PMS_P1;PMS_P2;Temp;Humidity;BMP_temperature;BMP_pressure;BME280_temperature;BME280_humidity;BME280_pressure;Samples;Min_cycle;Max_cycle;Signal;HPM_P1;HPM_P2
2021/11/27 00:00:29;;;;;;;;;;;;;;;20.87;29.29;93289.66;1042808;28;1308;-59
2021/11/27 00:01:00;;;;;;;;;;;;;;;20.88;27.88;93296.44;1043259;28;1089;-58
2021/11/27 00:01:30;;;;;;;;;;;;;;;20.88;28.00;93301.72;1044378;28;1914;-59
2021/11/27 00:02:01;;;;;;;;;;;;;;;20.86;28.01;93292.59;1044481;28;1040;-56
2021/11/27 00:02:31;;;;;;;;;;;;;;;20.85;28.53;93291.09;1044304;28;828;-59
2021/11/27 00:03:02;;;;;;;;;;;;;;;20.86;28.48;93290.75;1042828;28;1115;-57
2021/11/27 00:03:33;;;;;;;;;;;;;;;20.85;28.38;93285.81;1043765;28;1442;-58
2021/11/27 00:04:03;;;;;;;;;;;;;;;20.85;28.47;93280.56;1044359;28;1120;-56
2021/11/27 00:04:34;;;;;;;;;;;;;;;20.84;27.61;93290.31;1043108;28;1924;-59
2021/11/27 00:05:04;;;;;;;;;;;;;;;20.87;28.78;93284.41;1043064;28;1593;-56
2021/11/27 00:05:37;;;;;;;;;;;;;;;20.86;28.71;93288.13;1040767;28;789;-58
2021/11/27 00:06:08;;;;;;;;;;;;;;;20.84;28.04;93290.31;1044113;28;1361;-57
2021/11/27 00:06:39;;;;;;;;;;;;;;;20.85;28.52;93277.91;1044263;28;1150;-59
2021/11/27 00:07:09;;;;;;;;;;;;;;;20.87;29.21;93279.13;1044496;28;974;-59
2021/11/27 00:07:39;;;;;;;;;;;;;;;20.85;28.65;93285.81;1044801;28;1060;-59
2021/11/27 00:08:10;;;;;;;;;;;;;;;20.84;27.96;93282.41;1044161;28;1581;-58
2021/11/27 00:08:40;;;;;;;;;;;;;;;20.87;28.91;93281.75;1044522;28;1108;-57
2021/11/27 00:09:11;;;;;;;;;;;;;;;20.85;29.01;93276.06;1043916;28;1379;-56
2021/11/27 00:09:41;;;;;;;;;;;;;;;20.86;28.20;93274.16;1039750;28;1740;-58
2021/11/27 00:10:12;;;;;;;;;;;;;;;20.85;28.18;93273.44;1045983;28;1178;-58
2021/11/27 00:10:44;;;;;;;;;;;;;;;20.85;27.64;93270.78;1043339;28;1398;-59
2021/11/27 00:11:14;;;;;;;;;;;;;;;20.84;28.64;93274.50;1045041;28;1559;-57
2021/11/27 00:11:45;;;;;;;;;;;;;;;20.82;27.58;93276.72;1043409;28;1856;-56
2021/11/27 00:12:15;;;;;;;;;;;;;;;20.83;27.90;93270.38;1043328;28;2288;-59
2021/11/27 00:12:45;;;;;;;;;;;;;;;20.82;28.68;93271.44;1043575;28;1284;-58
2021/11/27 00:13:16;;;;;;;;;;;;;;;20.80;27.98;93273.66;1043884;28;1079;-59
2021/11/27 00:13:46;;;;;;;;;;;;;;;20.82;29.08;93265.41;1043866;28;1105;-59
2021/11/27 00:14:17;;;;;;;;;;;;;;;20.79;27.82;93263.47;1044280;28;1126;-57
2021/11/27 00:14:47;;;;;;;;;;;;;;;20.81;28.92;93264.63;1043105;28;2280;-59
2021/11/27 00:15:18;;;;;;;;;;;;;;;20.85;29.01;93268.16;1044253;28;1044;-59
2021/11/27 00:15:48;;;;;;;;;;;;;;;20.83;29.02;93269.59;1042662;28;1375;-56
2021/11/27 00:16:19;;;;;;;;;;;;;;;20.85;28.69;93273.44;1044166;28;1189;-59
2021/11/27 00:16:49;;;;;;;;;;;;;;;20.83;28.28;93265.09;1043376;28;1395;-58
2021/11/27 00:17:19;;;;;;;;;;;;;;;20.85;29.14;93270.78;1043742;28;1083;-58
2021/11/27 00:17:50;;;;;;;;;;;;;;;20.85;29.13;93268.16;1043817;28;1103;-58
2021/11/27 00:18:21;;;;;;;;;;;;;;;20.86;29.12;93261.00;1044501;28;1182;-58
2021/11/27 00:18:51;;;;;;;;;;;;;;;20.85;27.94;93262.91;1044405;28;1135;-59
2021/11/27 00:19:22;;;;;;;;;;;;;;;20.87;28.28;93259.91;1044323;28;1103;-59
2021/11/27 00:19:52;;;;;;;;;;;;;;;20.84;28.65;93258.72;1042957;28;2037;-57
2021/11/27 00:20:23;;;;;;;;;;;;;;;20.89;29.18;93257.72;1040030;28;1190;-57
2021/11/27 00:21:12;;;;;;;;;;;;;;;20.86;28.51;93256.50;1039269;28;1163;-57
2021/11/27 00:21:43;;;;;;;;;;;;;;;20.87;28.41;93257.28;1039169;28;1886;-58
2021/11/27 00:22:13;;;;;;;;;;;;;;;20.85;27.62;93259.50;1044041;28;1179;-58
2021/11/27 00:22:43;;;;;;;;;;;;;;;20.84;28.01;93258.72;1043996;28;1182;-57
2021/11/27 00:23:14;;;;;;;;;;;;;;;20.81;28.27;93262.00;1043640;28;1032;-59
2021/11/27 00:23:45;;;;;;;;;;;;;;;20.81;28.86;93256.75;1044287;28;1041;-59
2021/11/27 00:24:15;;;;;;;;;;;;;;;20.80;27.82;93260.47;1044489;28;1199;-58
2021/11/27 00:24:46;;;;;;;;;;;;;;;20.81;27.81;93253.38;1043518;28;2013;-57
2021/11/27 00:25:16;;;;;;;;;;;;;;;20.82;28.92;93254.88;1042616;28;1066;-58
2021/11/27 00:25:46;;;;;;;;;;;;;;;20.81;27.77;93259.38;1043977;28;1358;-58
2021/11/27 00:26:17;;;;;;;;;;;;;;;20.82;28.46;93254.88;1043270;28;1390;-58
2021/11/27 00:26:48;;;;;;;;;;;;;;;20.83;28.44;93251.16;1043482;28;2004;-59
2021/11/27 00:27:18;;;;;;;;;;;;;;;20.85;28.77;93248.97;1044062;28;1071;-59
2021/11/27 00:27:49;;;;;;;;;;;;;;;20.86;28.43;93256.50;1043322;28;1074;-59
2021/11/27 00:28:19;;;;;;;;;;;;;;;20.85;27.69;93248.97;1044457;28;1119;-59
2021/11/27 00:28:50;;;;;;;;;;;;;;;20.84;27.95;93250.03;1044334;28;1041;-58
2021/11/27 00:29:22;;;;;;;;;;;;;;;20.81;28.62;93240.94;1044517;28;1123;-57
2021/11/27 00:29:53;;;;;;;;;;;;;;;20.84;29.42;93252.69;1043232;28;2296;-56
2021/11/27 00:30:24;;;;;;;;;;;;;;;20.84;28.79;93245.56;1044078;28;1131;-57
2021/11/27 00:30:55;;;;;;;;;;;;;;;20.87;28.90;93252.03;1044212;28;1119;-58
2021/11/27 00:31:26;;;;;;;;;;;;;;;20.87;28.14;93252.03;1039648;28;1186;-58
2021/11/27 00:31:56;;;;;;;;;;;;;;;20.88;28.90;93248.28;1044119;28;1104;-57
2021/11/27 00:32:26;;;;;;;;;;;;;;;20.88;29.47;93253.53;1043659;28;1374;-56
2021/11/27 00:32:57;;;;;;;;;;;;;;;20.86;28.78;93258.38;1043806;28;1038;-57
2021/11/27 00:33:27;;;;;;;;;;;;;;;20.86;28.28;93248.63;1043129;28;1415;-56
2021/11/27 00:33:57;;;;;;;;;;;;;;;20.85;29.12;93241.84;1043246;28;1011;-58
2021/11/27 00:34:28;;;;;;;;;;;;;;;20.85;29.13;93244.47;1044276;28;1103;-59
2021/11/27 00:34:58;;;;;;;;;;;;;;;20.85;27.75;93249.72;1043185;28;2015;-56
2021/11/27 00:35:28;;;;;;;;;;;;;;;20.84;28.67;93242.91;1043763;28;1441;-58
2021/11/27 00:35:59;;;;;;;;;;;;;;;20.84;28.60;93242.91;1043882;28;1272;-56
2021/11/27 00:36:29;;;;;;;;;;;;;;;20.83;28.73;93241.41;1042024;28;1445;-59
2021/11/27 00:36:59;;;;;;;;;;;;;;;20.84;28.95;93242.91;1042817;28;1061;-58
2021/11/27 00:37:30;;;;;;;;;;;;;;;20.84;28.99;93242.91;1044518;28;991;-57
2021/11/27 00:38:01;;;;;;;;;;;;;;;20.82;28.39;93239.84;1043556;28;1308;-58
2021/11/27 00:38:31;;;;;;;;;;;;;;;20.84;28.01;93236.88;1044181;28;1016;-58
2021/11/27 00:39:03;;;;;;;;;;;;;;;20.85;29.14;93244.47;1044018;28;1064;-57
2021/11/27 00:39:33;;;;;;;;;;;;;;;20.84;29.10;93237.66;1043514;28;1581;-58
2021/11/27 00:40:04;;;;;;;;;;;;;;;20.84;27.62;93242.16;1042113;28;1962;-58
2021/11/27 00:40:36;;;;;;;;;;;;;;;20.82;27.84;93237.22;1044314;28;1186;-58
2021/11/27 00:41:06;;;;;;;;;;;;;;;20.83;29.07;93233.50;1044344;28;1562;-58
2021/11/27 00:41:37;;;;;;;;;;;;;;;20.80;27.60;93239.44;1044452;28;1910;-57
2021/11/27 00:42:07;;;;;;;;;;;;;;;20.84;29.06;93237.66;1043941;28;1013;-59
2021/11/27 00:42:37;;;;;;;;;;;;;;;20.83;27.63;93235.38;1043400;28;2299;-59
2021/11/27 00:43:08;;;;;;;;;;;;;;;20.82;28.65;93234.59;1043338;28;1033;-59
2021/11/27 00:43:38;;;;;;;;;;;;;;;20.85;29.01;93230.53;1043905;28;1072;-59
2021/11/27 00:44:09;;;;;;;;;;;;;;;20.84;28.37;93235.03;1043969;28;1077;-56
2021/11/27 00:44:39;;;;;;;;;;;;;;;20.85;28.98;93233.16;1044062;28;2272;-58
2021/11/27 00:45:11;;;;;;;;;;;;;;;20.80;27.69;93234.16;1039097;28;1596;-59
2021/11/27 00:45:42;;;;;;;;;;;;;;;20.82;28.83;93239.84;1040008;28;1128;-59
2021/11/27 00:46:13;;;;;;;;;;;;;;;20.84;29.23;93231.63;1040110;28;1244;-57
2021/11/27 00:46:43;;;;;;;;;;;;;;;20.82;28.03;93234.59;1043206;28;1857;-58
2021/11/27 00:47:14;;;;;;;;;;;;;;;20.81;28.11;93227.03;1043872;28;972;-55
2021/11/27 00:47:45;;;;;;;;;;;;;;;20.84;28.45;93231.63;1043464;28;1130;-59
2021/11/27 00:48:15;;;;;;;;;;;;;;;20.82;28.25;93231.19;1039815;28;1662;-55
2021/11/27 00:48:46;;;;;;;;;;;;;;;20.80;27.68;93221.00;1044455;28;1037;-58
2021/11/27 00:49:17;;;;;;;;;;;;;;;20.82;28.94;93228.56;1044817;28;1249;-58
2021/11/27 00:49:53;;;;;;;;;;;;;;;20.83;29.15;93230.88;1044186;28;1984;-59
2021/11/27 00:50:25;;;;;;;;;;;;;;;20.83;27.94;93228.22;1044570;28;1143;-58
2021/11/27 00:50:57;;;;;;;;;;;;;;;20.85;29.26;93227.91;1045158;28;1120;-59
2021/11/27 00:51:27;;;;;;;;;;;;;;;20.85;28.15;93230.53;1044666;28;1525;-58
2021/11/27 00:51:58;;;;;;;;;;;;;;;20.85;28.88;93220.00;1045125;28;1099;-58
2021/11/27 00:52:28;;;;;;;;;;;;;;;20.84;28.35;93231.63;1044543;28;1119;-59
2021/11/27 00:52:59;;;;;;;;;;;;;;;20.84;28.65;93221.09;1042898;28;1200;-56
2021/11/27 00:53:29;;;;;;;;;;;;;;;20.84;29.15;93215.81;1044408;28;1201;-58
2021/11/27 00:54:00;;;;;;;;;;;;;;;20.82;27.92;93215.38;1045051;28;1087;-59
2021/11/27 00:54:30;;;;;;;;;;;;;;;20.84;28.77;93218.44;1040204;28;2471;-58
2021/11/27 00:55:01;;;;;;;;;;;;;;;20.82;28.09;93225.91;1042586;28;1848;-59
2021/11/27 00:55:31;;;;;;;;;;;;;;;20.84;28.88;93219.22;1041235;28;946;-57
2021/11/27 00:56:02;;;;;;;;;;;;;;;20.83;28.93;93212.44;1036910;28;1328;-58
2021/11/27 00:56:32;;;;;;;;;;;;;;;20.85;28.86;93217.38;1040809;28;1045;-58
2021/11/27 00:57:03;;;;;;;;;;;;;;;20.83;28.25;93214.28;1041025;28;1037;-57
2021/11/27 00:57:33;;;;;;;;;;;;;;;20.85;29.00;93215.50;1045246;28;962;-58
2021/11/27 00:58:03;;;;;;;;;;;;;;;20.85;28.96;93220.00;1044173;28;1053;-57
2021/11/27 00:58:34;;;;;;;;;;;;;;;20.84;28.36;93227.13;1045293;28;1289;-58
2021/11/27 00:59:04;;;;;;;;;;;;;;;20.84;28.81;93208.69;1045447;28;1053;-58
2021/11/27 00:59:35;;;;;;;;;;;;;;;20.85;29.35;93210.25;1045325;28;1644;-59
2021/11/27 01:00:06;;;;;;;;;;;;;;;20.86;29.14;93211.75;1044186;28;1936;-57
2021/11/27 01:00:38;;;;;;;;;;;;;;;20.85;28.21;93209.47;1045243;28;943;-59
2021/11/27 01:01:10;;;;;;;;;;;;;;;20.82;27.70;93207.50;1045216;28;1101;-59
2021/11/27 01:01:40;;;;;;;;;;;;;;;20.84;28.68;93207.91;1045070;28;2040;-59
2021/11/27 01:02:11;;;;;;;;;;;;;;;20.84;28.91;93213.97;1045083;28;1111;-56
2021/11/27 01:02:41;;;;;;;;;;;;;;;20.81;27.99;93205.97;1045087;28;1013;-56
2021/11/27 01:03:12;;;;;;;;;;;;;;;20.86;29.10;93210.97;1044086;28;1479;-58
2021/11/27 01:03:42;;;;;;;;;;;;;;;20.86;28.91;93209.13;1044553;28;962;-57
2021/11/27 01:04:13;;;;;;;;;;;;;;;20.84;28.78;93210.56;1045143;28;1138;-56
2021/11/27 01:04:43;;;;;;;;;;;;;;;20.84;28.32;93210.56;1044733;28;1240;-59
2021/11/27 01:05:13;;;;;;;;;;;;;;;20.84;27.96;93210.56;1043518;28;2008;-58
2021/11/27 01:05:44;;;;;;;;;;;;;;;20.83;28.19;93209.81;1045443;28;1037;-58
2021/11/27 01:06:16;;;;;;;;;;;;;;;20.85;28.51;93207.59;1045186;28;1330;-59
2021/11/27 01:06:47;;;;;;;;;;;;;;;20.85;28.46;93204.97;1045067;28;1967;-55
2021/11/27 01:07:17;;;;;;;;;;;;;;;20.85;28.77;93212.09;1044667;28;2457;-59
2021/11/27 01:07:47;;;;;;;;;;;;;;;20.87;29.28;93213.28;1045854;28;1260;-59
2021/11/27 01:08:18;;;;;;;;;;;;;;;20.87;28.44;93207.25;1038741;28;1503;-56
2021/11/27 01:08:52;;;;;;;;;;;;;;;20.88;28.51;93216.69;1042704;28;978;-59
2021/11/27 01:09:22;;;;;;;;;;;;;;;20.85;29.07;93212.88;1044909;28;1131;-57
2021/11/27 01:09:52;;;;;;;;;;;;;;;20.85;28.59;93215.50;1045142;28;1100;-56
2021/11/27 01:10:23;;;;;;;;;;;;;;;20.85;29.10;93217.38;1043643;28;1916;-57
2021/11/27 01:10:55;;;;;;;;;;;;;;;20.88;28.98;93214.03;1043506;28;934;-57
2021/11/27 01:11:33;;;;;;;;;;;;;;;20.86;27.83;93213.63;1045421;28;1357;-58
2021/11/27 01:12:04;;;;;;;;;;;;;;;20.82;27.88;93212.75;1044993;28;1446;-55
2021/11/27 01:12:34;;;;;;;;;;;;;;;20.82;28.88;93212.75;1044468;28;1045;-58
2021/11/27 01:13:04;;;;;;;;;;;;;;;20.79;27.92;93219.44;1044101;28;1093;-57
2021/11/27 01:13:35;;;;;;;;;;;;;;;20.81;28.22;93213.88;1044526;28;1143;-58
2021/11/27 01:14:08;;;;;;;;;;;;;;;20.81;27.87;93222.50;1044067;28;1347;-58
2021/11/27 01:14:38;;;;;;;;;;;;;;;20.82;28.55;93224.06;1045456;28;792;-58
2021/11/27 01:15:09;;;;;;;;;;;;;;;20.82;28.97;93213.53;1045246;28;1041;-58
2021/11/27 01:15:39;;;;;;;;;;;;;;;20.80;28.79;93215.72;1043040;28;2171;-57
2021/11/27 01:16:09;;;;;;;;;;;;;;;20.85;29.19;93218.13;1045085;28;1262;-58
2021/11/27 01:16:40;;;;;;;;;;;;;;;20.84;27.90;93213.97;1045397;28;1022;-58
2021/11/27 01:17:11;;;;;;;;;;;;;;;20.84;28.56;93207.91;1042925;28;1457;-58
2021/11/27 01:17:42;;;;;;;;;;;;;;;20.81;27.63;93209.34;1044745;28;1534;-58
2021/11/27 01:18:13;;;;;;;;;;;;;;;20.81;28.60;93203.34;1044130;28;1647;-57
2021/11/27 01:18:43;;;;;;;;;;;;;;;20.81;28.96;93217.25;1044944;28;1041;-57
2021/11/27 01:19:14;;;;;;;;;;;;;;;20.80;28.47;93207.84;1044914;28;1154;-56
2021/11/27 01:19:44;;;;;;;;;;;;;;;20.81;28.10;93209.34;1045180;28;1486;-58
2021/11/27 01:20:15;;;;;;;;;;;;;;;20.79;28.49;93208.91;1045023;28;1142;-59
2021/11/27 01:20:46;;;;;;;;;;;;;;;20.79;27.48;93208.16;1042841;28;1848;-58
2021/11/27 01:21:18;;;;;;;;;;;;;;;20.82;28.96;93203.00;1044920;28;1205;-59
2021/11/27 01:21:49;;;;;;;;;;;;;;;20.82;28.78;93205.63;1045060;28;1105;-58
2021/11/27 01:22:21;;;;;;;;;;;;;;;20.82;29.01;93203.00;1044345;28;1338;-59
2021/11/27 01:22:52;;;;;;;;;;;;;;;20.82;28.80;93200.34;1044578;28;1021;-58
2021/11/27 01:23:23;;;;;;;;;;;;;;;20.85;29.59;93206.84;1044738;28;1205;-59
2021/11/27 01:23:54;;;;;;;;;;;;;;;20.83;28.22;93201.91;1044266;28;1085;-59
2021/11/27 01:24:25;;;;;;;;;;;;;;;20.86;28.87;93208.34;1044765;28;1143;-58
2021/11/27 01:24:56;;;;;;;;;;;;;;;20.83;28.02;93201.91;1045242;28;1132;-58
2021/11/27 01:25:26;;;;;;;;;;;;;;;20.84;28.70;93210.56;1044610;28;1107;-59
2021/11/27 01:25:56;;;;;;;;;;;;;;;20.82;27.84;93197.72;1044624;28;2358;-59
2021/11/27 01:26:27;;;;;;;;;;;;;;;20.81;28.65;93206.72;1045361;28;1115;-59
2021/11/27 01:26:59;;;;;;;;;;;;;;;20.85;29.35;93204.97;1044681;28;1372;-58
2021/11/27 01:27:30;;;;;;;;;;;;;;;20.81;27.96;93198.81;1037239;28;1582;-59
2021/11/27 01:28:01;;;;;;;;;;;;;;;20.82;28.24;93199.59;1035636;28;1054;-58
2021/11/27 01:28:31;;;;;;;;;;;;;;;20.80;27.96;93199.94;1037400;28;768;-59
2021/11/27 01:29:02;;;;;;;;;;;;;;;20.78;27.56;93196.88;1040589;28;1152;-58
2021/11/27 01:29:33;;;;;;;;;;;;;;;20.80;28.52;93202.56;1045074;28;762;-59
2021/11/27 01:30:07;;;;;;;;;;;;;;;20.80;28.50;93204.44;1045261;28;1081;-58
2021/11/27 01:30:38;;;;;;;;;;;;;;;20.78;27.88;93190.81;1043790;28;1820;-58
2021/11/27 01:31:08;;;;;;;;;;;;;;;20.79;28.55;93197.66;1043755;28;1357;-59
2021/11/27 01:31:41;;;;;;;;;;;;;;;20.77;28.10;93200.59;1045332;28;1018;-59
2021/11/27 01:32:12;;;;;;;;;;;;;;;20.82;29.51;93202.22;1044861;28;1004;-59
2021/11/27 01:32:42;;;;;;;;;;;;;;;20.85;29.26;93207.59;1043323;28;1426;-58
2021/11/27 01:33:12;;;;;;;;;;;;;;;20.83;28.31;93196.66;1044635;28;1327;-58
2021/11/27 01:33:43;;;;;;;;;;;;;;;20.82;28.96;93197.72;1043904;28;1839;-59
2021/11/27 01:34:13;;;;;;;;;;;;;;;20.82;27.89;93202.22;1039748;28;1945;-57
2021/11/27 01:34:44;;;;;;;;;;;;;;;20.83;29.28;93196.66;1040862;28;1461;-59
2021/11/27 01:35:14;;;;;;;;;;;;;;;20.82;29.02;93202.22;1044053;28;1544;-59
2021/11/27 01:35:45;;;;;;;;;;;;;;;20.82;28.61;93203.00;1043686;28;2005;-57
2021/11/27 01:36:15;;;;;;;;;;;;;;;20.80;27.95;93205.19;1043564;28;1470;-56
2021/11/27 01:36:45;;;;;;;;;;;;;;;20.78;28.05;93202.13;1045345;28;1155;-57
2021/11/27 01:37:16;;;;;;;;;;;;;;;20.82;28.96;93208.25;1044752;28;1170;-57
2021/11/27 01:37:46;;;;;;;;;;;;;;;20.81;29.01;93201.44;1044555;28;1087;-56
2021/11/27 01:38:17;;;;;;;;;;;;;;;20.82;29.20;93202.22;1042858;28;1778;-58
2021/11/27 01:38:47;;;;;;;;;;;;;;;20.80;28.51;93205.19;1044864;28;1052;-59
2021/11/27 01:39:18;;;;;;;;;;;;;;;20.84;29.56;93200.78;1045324;28;1241;-58
2021/11/27 01:39:48;;;;;;;;;;;;;;;20.82;28.61;93200.34;1045165;28;1134;-57
2021/11/27 01:40:19;;;;;;;;;;;;;;;20.82;28.08;93203.00;1045297;28;1134;-58
2021/11/27 01:40:50;;;;;;;;;;;;;;;20.84;28.77;93202.66;1044406;28;1859;-59
2021/11/27 01:41:20;;;;;;;;;;;;;;;20.85;29.07;93204.19;1044795;28;1914;-57
2021/11/27 01:41:50;;;;;;;;;;;;;;;20.82;28.48;93199.59;1044819;28;1178;-56
2021/11/27 01:42:21;;;;;;;;;;;;;;;20.82;28.24;93200.34;1044565;28;1130;-56
2021/11/27 01:42:51;;;;;;;;;;;;;;;20.82;28.41;93207.50;1041653;28;2278;-59
2021/11/27 01:43:22;;;;;;;;;;;;;;;20.81;29.02;93203.34;1043756;28;1563;-59
2021/11/27 01:43:52;;;;;;;;;;;;;;;20.79;28.06;93208.16;1045044;28;1025;-57
2021/11/27 01:44:23;;;;;;;;;;;;;;;20.79;27.82;93208.16;1045035;28;1135;-58
2021/11/27 01:44:53;;;;;;;;;;;;;;;20.78;28.85;93204.00;1040563;28;1413;-58
2021/11/27 01:45:24;;;;;;;;;;;;;;;20.78;28.95;93206.63;1040888;28;1076;-58
2021/11/27 01:45:54;;;;;;;;;;;;;;;20.78;29.16;93204.75;1040696;28;1081;-56
2021/11/27 01:46:24;;;;;;;;;;;;;;;20.78;29.06;93199.50;1043549;28;1591;-59
2021/11/27 01:46:55;;;;;;;;;;;;;;;20.80;28.77;93201.78;1044723;28;1792;-57
2021/11/27 01:47:25;;;;;;;;;;;;;;;20.80;28.87;93207.84;1045340;28;1127;-56
2021/11/27 01:47:57;;;;;;;;;;;;;;;20.80;28.12;93207.06;1043983;28;2210;-58
2021/11/27 01:48:28;;;;;;;;;;;;;;;20.80;28.62;93205.19;1045179;28;1320;-59
2021/11/27 01:48:58;;;;;;;;;;;;;;;20.80;28.26;93204.44;1045371;28;1112;-59
2021/11/27 01:49:28;;;;;;;;;;;;;;;20.78;28.20;93207.41;1045172;28;1048;-59
2021/11/27 01:49:59;;;;;;;;;;;;;;;20.79;28.48;93206.28;1044863;28;1107;-59
2021/11/27 01:50:30;;;;;;;;;;;;;;;20.77;28.07;93200.59;1044681;28;1395;-59
2021/11/27 01:51:01;;;;;;;;;;;;;;;20.79;29.15;93198.38;1044651;28;1116;-58
2021/11/27 01:51:32;;;;;;;;;;;;;;;20.77;28.80;93200.59;1044851;28;1123;-59
2021/11/27 01:52:03;;;;;;;;;;;;;;;20.77;27.98;93195.31;1044629;28;1135;-58
2021/11/27 01:52:33;;;;;;;;;;;;;;;20.74;27.57;93198.63;1044715;28;1084;-56
2021/11/27 01:53:04;;;;;;;;;;;;;;;20.76;27.68;93193.03;1043848;28;2176;-58
2021/11/27 01:53:35;;;;;;;;;;;;;;;20.76;28.20;93196.44;1043847;28;1649;-58
2021/11/27 01:54:07;;;;;;;;;;;;;;;20.76;28.34;93191.16;1044719;28;1136;-58
2021/11/27 01:54:38;;;;;;;;;;;;;;;20.76;27.74;93188.53;1039799;28;1455;-58
2021/11/27 01:55:08;;;;;;;;;;;;;;;20.78;28.97;93196.88;1041006;28;1089;-56
2021/11/27 01:55:39;;;;;;;;;;;;;;;20.80;28.15;93192.03;1043758;28;1307;-58
2021/11/27 01:56:10;;;;;;;;;;;;;;;20.79;28.23;93195.00;1042696;28;1280;-59
2021/11/27 01:56:42;;;;;;;;;;;;;;;20.76;27.97;93183.28;1045063;28;1143;-59
2021/11/27 01:57:12;;;;;;;;;;;;;;;20.76;27.84;93193.81;1045229;28;1265;-59
2021/11/27 01:57:43;;;;;;;;;;;;;;;20.76;28.15;93188.53;1044024;28;1863;-57
2021/11/27 01:58:13;;;;;;;;;;;;;;;20.77;28.43;93194.56;1043716;28;1318;-59
2021/11/27 01:58:44;;;;;;;;;;;;;;;20.74;27.61;93195.22;1044789;28;1065;-57
2021/11/27 01:59:15;;;;;;;;;;;;;;;20.76;28.20;93191.16;1044885;28;1417;-57
2021/11/27 01:59:47;;;;;;;;;;;;;;;20.77;29.03;93190.06;1044090;28;1165;-58
2021/11/27 02:00:18;;;;;;;;;;;;;;;20.75;27.86;93197.53;1043635;28;2191;-59
2021/11/27 02:00:50;;;;;;;;;;;;;;;20.78;28.59;93188.19;1045179;28;1049;-55
2021/11/27 02:01:21;;;;;;;;;;;;;;;20.79;28.66;93189.75;1045010;28;1969;-58
2021/11/27 02:01:52;;;;;;;;;;;;;;;20.77;27.64;93189.31;1043210;28;1206;-59
2021/11/27 02:02:22;;;;;;;;;;;;;;;20.75;27.55;93186.25;1038837;28;1455;-58
2021/11/27 02:02:53;;;;;;;;;;;;;;;20.73;27.90;93181.31;1037328;28;2192;-59
2021/11/27 02:03:23;;;;;;;;;;;;;;;20.73;28.12;93183.94;1040139;28;1135;-58
2021/11/27 02:03:54;;;;;;;;;;;;;;;20.73;28.90;93181.31;1044138;28;1391;-58
2021/11/27 02:04:24;;;;;;;;;;;;;;;20.75;28.27;93176.47;1044375;28;1159;-57
2021/11/27 02:04:54;;;;;;;;;;;;;;;20.76;28.88;93183.28;1042950;28;1041;-56
2021/11/27 02:05:25;;;;;;;;;;;;;;;20.73;28.76;93175.28;1045219;28;1115;-59
2021/11/27 02:05:55;;;;;;;;;;;;;;;20.75;27.90;93178.34;1044637;28;1414;-58
2021/11/27 02:06:26;;;;;;;;;;;;;;;20.72;27.60;93179.78;1044811;28;1171;-59
2021/11/27 02:06:56;;;;;;;;;;;;;;;20.71;28.06;93180.88;1044542;28;1324;-57
2021/11/27 02:07:27;;;;;;;;;;;;;;;20.70;27.85;93176.72;1044976;28;1163;-56
2021/11/27 02:08:01;;;;;;;;;;;;;;;20.70;27.66;93175.94;1043800;28;1858;-59
2021/11/27 02:08:40;;;;;;;;;;;;;;;20.71;28.20;93175.59;1041663;28;1245;-58
2021/11/27 02:09:33;;;;;;;;;;;;;;;20.68;27.87;93176.28;1041725;28;1295;-59
2021/11/27 02:10:17;;;;;;;;;;;;;;;20.71;28.31;93172.97;1041667;28;1734;-57
2021/11/27 02:11:05;;;;;;;;;;;;;;;20.70;27.48;93168.81;1040877;28;1371;-59
2021/11/27 02:11:54;;;;;;;;;;;;;;;20.72;27.87;93179.00;1039828;28;2105;-58
2021/11/27 02:12:25;;;;;;;;;;;;;;;20.74;28.49;93174.19;1036671;28;1028;-58
2021/11/27 02:12:55;;;;;;;;;;;;;;;20.74;27.85;93174.19;1036769;28;1887;-59
2021/11/27 02:13:26;;;;;;;;;;;;;;;20.76;28.41;93171.97;1040258;28;1246;-56
2021/11/27 02:14:16;;;;;;;;;;;;;;;20.72;27.88;93165.84;1041879;28;1277;-59
2021/11/27 02:15:07;;;;;;;;;;;;;;;20.73;28.34;93170.78;1044442;28;950;-58
2021/11/27 02:15:54;;;;;;;;;;;;;;;20.74;28.08;93172.31;1044608;28;1204;-58
2021/11/27 02:16:25;;;;;;;;;;;;;;;20.74;28.22;93169.69;1040446;28;1258;-59
2021/11/27 02:16:56;;;;;;;;;;;;;;;20.73;29.20;93173.41;1040664;28;1085;-56
2021/11/27 02:17:26;;;;;;;;;;;;;;;20.73;27.85;93168.13;1040506;28;1194;-59
2021/11/27 02:17:57;;;;;;;;;;;;;;;20.73;27.62;93175.28;1042455;28;1797;-59
2021/11/27 02:18:27;;;;;;;;;;;;;;;20.73;28.46;93167.41;1045237;28;1147;-57
2021/11/27 02:18:58;;;;;;;;;;;;;;;20.73;27.72;93170.78;1044715;28;1104;-59
2021/11/27 02:19:48;;;;;;;;;;;;;;;20.73;28.82;93168.13;1041692;28;1215;-56
2021/11/27 02:20:39;;;;;;;;;;;;;;;20.74;28.63;93159.16;1040061;28;1085;-56
2021/11/27 02:21:29;;;;;;;;;;;;;;;20.74;28.67;93167.06;1043502;28;1906;-57
2021/11/27 02:21:59;;;;;;;;;;;;;;;20.73;27.86;93164.75;1044722;28;1093;-58
2021/11/27 02:22:33;;;;;;;;;;;;;;;20.75;29.03;93162.56;1044383;28;1103;-58
2021/11/27 02:23:04;;;;;;;;;;;;;;;20.72;27.73;93166.63;1043438;28;1828;-57
2021/11/27 02:23:40;;;;;;;;;;;;;;;20.72;28.05;93165.84;1044073;28;1376;-58
2021/11/27 02:24:14;;;;;;;;;;;;;;;20.73;28.25;93168.13;1043678;28;1481;-56
2021/11/27 02:25:06;;;;;;;;;;;;;;;20.71;28.63;93165.06;1043696;28;1271;-54
2021/11/27 02:25:56;;;;;;;;;;;;;;;20.72;28.59;93161.34;1039688;28;1977;-58
2021/11/27 02:26:47;;;;;;;;;;;;;;;20.71;27.84;93165.06;1041843;28;1019;-59
2021/11/27 02:27:36;;;;;;;;;;;;;;;20.70;27.80;93165.41;1042736;28;995;-56
2021/11/27 02:28:07;;;;;;;;;;;;;;;20.72;28.83;93166.63;1043159;28;1871;-56
2021/11/27 02:28:38;;;;;;;;;;;;;;;20.71;27.67;93164.34;1045221;28;1040;-58
2021/11/27 02:29:15;;;;;;;;;;;;;;;20.70;28.80;93153.03;1044533;28;1250;-56
2021/11/27 02:29:45;;;;;;;;;;;;;;;20.67;28.03;93148.41;1036253;28;1328;-59
2021/11/27 02:30:16;;;;;;;;;;;;;;;20.66;27.57;93146.91;1032423;28;1411;-58
2021/11/27 02:30:46;;;;;;;;;;;;;;;20.71;29.04;93148.53;1033492;28;983;-59
2021/11/27 02:31:37;;;;;;;;;;;;;;;20.68;27.45;93144.69;1039183;28;1324;-59
2021/11/27 02:32:27;;;;;;;;;;;;;;;20.68;27.49;93152.59;1044318;28;1372;-57
2021/11/27 02:32:58;;;;;;;;;;;;;;;20.69;28.93;93140.97;1043889;28;1879;-55
2021/11/27 02:33:29;;;;;;;;;;;;;;;20.69;27.75;93140.22;1042205;28;1801;-57
2021/11/27 02:34:00;;;;;;;;;;;;;;;20.70;28.44;93139.88;1044123;28;1445;-56
2021/11/27 02:34:30;;;;;;;;;;;;;;;20.71;27.84;93138.75;1045254;28;737;-59
2021/11/27 02:35:02;;;;;;;;;;;;;;;20.69;28.12;93135.69;1044288;28;1454;-59
2021/11/27 02:35:33;;;;;;;;;;;;;;;20.69;27.21;93134.94;1041442;28;1269;-58
2021/11/27 02:36:04;;;;;;;;;;;;;;;20.69;27.89;93125.16;1043725;28;1186;-58
2021/11/27 02:36:34;;;;;;;;;;;;;;;20.70;28.50;93136.47;1045310;28;998;-57
2021/11/27 02:37:05;;;;;;;;;;;;;;;20.70;28.01;93134.59;1044779;28;1096;-59
2021/11/27 02:37:36;;;;;;;;;;;;;;;20.72;28.11;93131.63;1044774;28;918;-58
2021/11/27 02:38:06;;;;;;;;;;;;;;;20.71;29.47;93127.47;1043336;28;2070;-59
2021/11/27 02:38:36;;;;;;;;;;;;;;;20.74;29.13;93129.41;1043935;28;1660;-59
2021/11/27 02:39:07;;;;;;;;;;;;;;;20.71;27.99;93127.47;1042153;28;1249;-58
2021/11/27 02:39:38;;;;;;;;;;;;;;;20.71;28.65;93128.22;1042593;28;1473;-58
2021/11/27 02:40:08;;;;;;;;;;;;;;;20.71;27.67;93128.22;1044707;28;1147;-56
2021/11/27 02:40:39;;;;;;;;;;;;;;;20.71;27.78;93128.22;1044748;28;1626;-58
2021/11/27 02:41:10;;;;;;;;;;;;;;;20.69;28.00;93129.69;1044897;28;1143;-56
2021/11/27 02:41:41;;;;;;;;;;;;;;;20.71;28.24;93124.84;1044758;28;1959;-58
2021/11/27 02:42:11;;;;;;;;;;;;;;;20.69;27.83;93125.16;1044560;28;1162;-58
2021/11/27 02:42:41;;;;;;;;;;;;;;;20.72;28.75;93129.00;1043676;28;2399;-57
2021/11/27 02:43:12;;;;;;;;;;;;;;;20.69;27.46;93130.44;1042881;28;2264;-56
2021/11/27 02:43:42;;;;;;;;;;;;;;;20.69;28.25;93130.44;1044404;28;1040;-54
2021/11/27 02:44:12;;;;;;;;;;;;;;;20.68;28.48;93123.66;1044874;28;1123;-57
2021/11/27 02:44:43;;;;;;;;;;;;;;;20.69;28.21;93117.25;1045052;28;1189;-56
2021/11/27 02:45:13;;;;;;;;;;;;;;;20.69;28.24;93117.25;1044709;28;1169;-53
2021/11/27 02:45:43;;;;;;;;;;;;;;;20.70;28.34;93121.44;1045227;28;1028;-55
2021/11/27 02:46:14;;;;;;;;;;;;;;;20.69;27.83;93119.91;1044418;28;1390;-55
2021/11/27 02:46:44;;;;;;;;;;;;;;;20.69;27.83;93114.63;1044589;28;1767;-57
2021/11/27 02:47:14;;;;;;;;;;;;;;;20.72;28.43;93121.09;1044887;28;1087;-56
2021/11/27 02:47:45;;;;;;;;;;;;;;;20.71;27.70;93114.31;1039734;28;1751;-56
2021/11/27 02:48:15;;;;;;;;;;;;;;;20.69;27.46;93119.91;1043156;28;1943;-58